Latest Weather Observations for Cobar Airport

IDN60801

Issued at 8:03 am EST Sunday 20 August 2017 (issued every 30 minutes, with the page automatically refreshed every 10 minutes)

About weather observations | Map of weather stations | Latest weather observations for NSW | Other Formats
Station Details ID: 048237 Name: COBAR AIRPORT AWS Lat: -31.54 Lon: 145.80 Height: 218.0 m
Data from the previous 72 hours. | See also: Recent months at Cobar Airport
Date/Time
EST
Temp
°C
App
Temp
°C
Dew
Point
°C
Rel
Hum
%
Delta-T
°C
Wind Press
QNH
hPa
Press
MSL
hPa
Rain since
9am
mm
Dir  Spd
km/h
Gust
km/h
Spd
kts
Gust
kts
20/08:00am 4.3 1.0 -1.3 67 2.1 S 6 7 3 4 1026.4 1026.5 0.0
20/07:30am 3.1 -0.7 -1.1 74 1.5 SE 9 15 5 8 1025.8 1025.9 0.0
20/07:00am -1.8 -6.2 -5.8 74 1.1 ESE 9 11 5 6 1025.7 1025.8 0.0
20/06:30am 0.5 -4.3 -2.5 80 1.1 ESE 13 15 7 8 1025.6 1025.7 0.0
20/06:00am -2.9 -7.3 -6.0 79 0.8 SE 9 11 5 6 1025.6 1025.7 0.0
20/05:30am -3.3 -6.1 -6.9 76 0.9 CALM 0 2 0 1 1025.9 1026.0 0.0
20/05:00am -3.3 -6.9 -7.4 73 1.0 SE 4 7 2 4 1025.9 1026.0 0.0
20/04:30am -3.2 -6.0 -7.3 73 1.1 CALM 0 0 0 0 1025.5 1025.6 0.0
20/04:00am -2.9 -5.7 -7.0 73 1.1 CALM 0 0 0 0 1025.2 1025.3 0.0
20/03:30am -2.2 -5.0 -6.9 70 1.3 CALM 0 0 0 0 1025.3 1025.4 0.0
20/03:00am -1.7 -4.4 -6.2 71 1.3 CALM 0 2 0 1 1025.4 1025.5 0.0
20/02:30am -1.4 -4.1 -6.1 70 1.4 CALM 0 0 0 0 1025.5 1025.6 0.0
20/02:00am -0.7 -3.4 -5.7 69 1.5 CALM 0 0 0 0 1025.8 1025.9 0.0
20/01:30am -0.8 -3.6 -6.5 65 1.7 CALM 0 0 0 0 1025.9 1026.0 0.0
20/01:00am 0.1 -3.0 -5.9 64 1.9 SSE 2 4 1 2 1025.9 1026.0 0.0
20/12:30am 0.9 -1.7 -5.3 63 2.0 CALM 0 0 0 0 1025.9 1026.0 0.0
20/12:00am 1.1 -1.5 -5.4 62 2.1 CALM 0 0 0 0 1026.1 1026.2 0.0
 
Date/Time
EST
Temp
°C
App
Temp
°C
Dew
Point
°C
Rel
Hum
%
Delta-T
°C
Wind Press
QNH
hPa
Press
MSL
hPa
Rain since
9am
mm
Dir  Spd
km/h
Gust
km/h
Spd
kts
Gust
kts
19/11:30pm 1.4 -1.7 -5.7 59 2.4 S 2 6 1 3 1026.2 1026.3 0.0
19/11:00pm 2.0 -0.6 -5.4 58 2.5 CALM 0 0 0 0 1026.4 1026.5 0.0
19/10:30pm 2.6 0.0 -5.3 56 2.6 CALM 0 0 0 0 1026.4 1026.5 0.0
19/10:00pm 3.3 0.3 -5.1 54 2.8 SSW 2 6 1 3 1026.2 1026.3 0.0
19/09:30pm 3.8 0.7 -5.9 49 3.2 SSW 2 7 1 4 1026.1 1026.2 0.0
19/09:00pm 5.7 1.7 -5.3 45 3.7 SSW 7 9 4 5 1026.1 1026.2 0.0
19/08:30pm 6.8 2.5 -5.2 42 4.1 SSW 9 11 5 6 1026.0 1026.1 0.0
19/08:00pm 7.6 2.9 -5.1 40 4.4 SSW 11 13 6 7 1025.8 1025.9 0.0
19/07:30pm 9.5 4.5 -4.4 37 5.1 SSW 13 17 7 9 1025.6 1025.7 0.0
19/07:00pm 10.4 5.0 -4.4 35 5.4 SSW 15 20 8 11 1025.2 1025.3 0.0
19/06:30pm 11.2 5.0 -4.9 32 5.9 SSW 19 26 10 14 1024.9 1025.0 0.0
19/06:00pm 11.6 5.4 -4.5 32 6.0 SSW 19 30 10 16 1024.6 1024.7 0.0
19/05:30pm 12.6 6.2 -4.9 29 6.5 SSW 20 32 11 17 1024.1 1024.3 0.0
19/05:00pm 13.3 5.0 -4.8 28 6.8 S 30 41 16 22 1023.9 1024.1 0.0
19/04:30pm 13.8 5.6 -4.4 28 7.0 SSW 30 39 16 21 1023.6 1023.8 0.0
19/04:00pm 13.9 6.0 -4.8 27 7.1 SSW 28 39 15 21 1023.6 1023.8 0.0
19/03:30pm 14.0 5.3 -4.7 27 7.1 SSW 32 46 17 25 1023.7 1023.9 0.0
19/03:00pm 14.6 6.5 -3.2 29 7.0 S 30 44 16 24 1023.8 1024.0 0.0
19/02:30pm 14.1 6.0 -2.8 31 6.7 SSW 30 41 16 22 1023.9 1024.1 0.0
19/02:00pm 13.6 6.3 -3.2 31 6.6 SSW 26 35 14 19 1024.1 1024.3 0.0
19/01:30pm 13.6 5.9 -2.8 32 6.5 SSW 28 37 15 20 1024.6 1024.7 0.0
19/01:00pm 12.8 5.1 -2.6 34 6.0 SSW 28 41 15 22 1024.9 1025.0 0.0
19/12:30pm 13.2 6.2 -0.8 38 5.8 SSW 26 37 14 20 1025.3 1025.4 0.0
19/12:00pm 12.7 6.3 0.8 44 5.0 SSW 24 35 13 19 1025.6 1025.7 0.0
19/11:30am 12.0 6.0 1.1 47 4.6 SSW 22 44 12 24 1025.9 1026.0 0.0
19/11:00am 11.3 4.5 0.7 48 4.4 SSW 26 33 14 18 1026.2 1026.3 0.0
19/10:30am 10.6 4.3 1.7 54 3.8 SW 24 33 13 18 1026.2 1026.3 0.0
19/10:00am 10.1 4.7 2.5 59 3.3 SW 20 32 11 17 1026.2 1026.3 0.0
19/09:30am 9.2 3.0 2.3 62 2.9 SSW 24 32 13 17 1026.3 1026.4 0.0
19/09:00am 8.3 1.8 2.5 67 2.4 SSW 26 33 14 18 1026.1 1026.2 0.0
19/08:30am 7.2 1.4 2.3 71 2.0 SW 22 30 12 16 1025.7 1025.8 0.0
19/08:00am 5.0 1.6 1.7 79 1.3 WSW 9 13 5 7 1025.2 1025.3 0.0
19/07:30am 1.5 -0.6 -0.9 84 0.9 CALM 0 0 0 0 1024.8 1024.9 0.0
19/07:00am -0.5 -4.0 -2.9 84 0.8 WSW 6 7 3 4 1024.5 1024.6 0.0
19/06:30am 0.0 -3.6 -2.1 86 0.7 WSW 7 9 4 5 1024.1 1024.3 0.0
19/06:00am 0.2 -3.8 -2.3 83 0.9 WSW 9 11 5 6 1023.8 1024.0 0.0
19/05:30am 1.2 -2.8 -1.9 80 1.1 WSW 9 9 5 5 1023.6 1023.8 0.0
19/05:00am 2.4 -1.4 -0.7 80 1.1 WSW 9 9 5 5 1023.3 1023.5 0.0
19/04:30am 3.3 -0.4 0.0 79 1.2 SW 9 13 5 7 1023.0 1023.1 0.0
19/04:00am 4.0 0.3 0.2 76 1.4 SW 9 11 5 6 1022.9 1023.0 0.0
19/03:30am 4.9 0.9 0.3 72 1.8 SW 11 13 6 7 1022.8 1022.9 0.0
19/03:00am 5.4 1.4 0.4 70 1.9 SW 11 15 6 8 1022.9 1023.0 0.0
19/02:30am 5.1 0.6 -0.1 69 2.0 SW 13 15 7 8 1023.1 1023.2 0.0
19/02:00am 5.5 1.4 -0.1 67 2.2 SW 11 17 6 9 1023.1 1023.2 0.0
19/01:30am 6.6 2.5 -0.1 62 2.6 SSW 11 15 6 8 1023.2 1023.4 0.0
19/01:00am 7.4 3.3 -0.3 58 3.0 SSW 11 13 6 7 1023.2 1023.4 0.0
19/12:30am 8.5 3.3 0.0 55 3.4 SSW 17 22 9 12 1023.1 1023.2 0.0
19/12:00am 8.9 4.1 -0.1 53 3.6 SSW 15 20 8 11 1023.2 1023.4 0.0
 
Date/Time
EST
Temp
°C
App
Temp
°C
Dew
Point
°C
Rel
Hum
%
Delta-T
°C
Wind Press
QNH
hPa
Press
MSL
hPa
Rain since
9am
mm
Dir  Spd
km/h
Gust
km/h
Spd
kts
Gust
kts
18/11:30pm 8.6 4.0 -1.2 50 3.8 SSW 13 17 7 9 1023.2 1023.4 0.0
18/11:00pm 8.5 3.9 -1.0 51 3.7 SW 13 20 7 11 1023.3 1023.5 0.0
18/10:30pm 7.2 2.8 -2.8 49 3.7 SW 11 15 6 8 1023.1 1023.2 0.0
18/10:00pm 7.0 2.5 -3.0 49 3.6 SW 11 11 6 6 1022.9 1023.0 0.0
18/09:30pm 7.6 3.5 -2.7 48 3.8 SW 9 11 5 6 1022.8 1022.9 0.0
18/09:00pm 7.8 3.3 -3.4 45 4.1 SW 11 11 6 6 1022.6 1022.7 0.0
18/08:30pm 10.1 6.0 -2.9 40 4.9 SW 9 11 5 6 1022.3 1022.4 0.0
18/08:00pm 11.2 6.8 -2.6 38 5.3 SW 11 17 6 9 1022.1 1022.2 0.0
18/07:30pm 12.2 7.4 -2.4 36 5.8 SW 13 17 7 9 1021.6 1021.7 0.0
18/07:00pm 13.0 7.1 -2.5 34 6.1 SW 19 24 10 13 1021.2 1021.3 0.0
18/06:30pm 13.5 7.0 -2.4 33 6.4 WSW 22 32 12 17 1020.7 1020.8 0.0
18/06:00pm 14.0 6.4 -2.4 32 6.6 SW 28 44 15 24 1020.4 1020.5 0.0
18/05:30pm 14.7 7.5 -2.2 31 6.9 SW 26 43 14 23 1020.1 1020.2 0.0
18/05:00pm 15.4 7.8 -2.1 30 7.2 WSW 28 41 15 22 1019.7 1019.8 0.0
18/04:40pm 15.5 7.2 -2.0 30 7.2 WSW 32 52 17 28 1019.2 1019.3 0.0
18/04:30pm 15.8 7.4 -2.2 29 7.4 WSW 32 46 17 25 1019.2 1019.3 0.0
18/04:00pm 16.1 8.1 -2.4 28 7.6 SW 30 43 16 23 1018.9 1019.0 0.0
18/03:33pm 16.4 8.4 -2.6 27 7.8 SW 30 48 16 26 1018.7 1018.8 0.0
18/03:30pm 16.1 7.6 -2.9 27 7.7 WSW 32 48 17 26 1018.7 1018.8 0.0
18/03:00pm 16.3 7.9 -2.7 27 7.7 WSW 32 44 17 24 1018.7 1018.8 0.0
18/02:30pm 16.3 7.7 -2.2 28 7.6 SW 33 50 18 27 1018.6 1018.7 0.0
18/02:17pm 16.8 9.2 -1.8 28 7.8 WSW 28 46 15 25 1018.5 1018.6 0.0
18/02:00pm 15.7 5.9 -2.7 28 7.4 WSW 39 50 21 27 1018.8 1018.9 0.0
18/01:31pm 16.3 7.7 -2.2 28 7.6 SW 33 52 18 28 1018.9 1019.0 0.0
18/01:30pm 15.7 6.8 -2.3 29 7.4 SW 35 52 19 28 1018.8 1018.9 0.0
18/01:14pm 16.1 7.8 -1.9 29 7.5 WSW 32 50 17 27 1018.9 1019.0 0.0
18/01:00pm 15.9 7.5 -2.1 29 7.4 WSW 32 46 17 25 1019.1 1019.2 0.0
18/12:32pm 15.9 7.5 -2.1 29 7.4 WSW 32 54 17 29 1019.4 1019.6 0.0
18/12:30pm 15.9 7.6 -1.6 30 7.3 WSW 32 44 17 24 1019.4 1019.6 0.0
18/12:00pm 15.1 6.9 -1.0 33 6.7 SW 32 44 17 24 1019.8 1019.9 0.0
18/11:30am 14.6 7.4 0.5 38 6.1 WSW 28 46 15 25 1020.1 1020.2 0.0
18/11:00am 14.1 6.1 0.7 40 5.7 WSW 32 43 17 23 1020.5 1020.6 0.0
18/10:30am 13.6 5.7 0.9 42 5.5 WSW 32 44 17 24 1020.6 1020.7 0.0
18/10:00am 12.5 5.0 0.9 45 4.9 SW 30 44 16 24 1020.6 1020.7 0.0
18/09:30am 12.2 4.4 1.5 48 4.6 SW 32 50 17 27 1020.5 1020.6 0.0
18/09:00am 11.7 3.9 1.6 50 4.3 WSW 32 50 17 27 1020.3 1020.4 0.0
18/08:56am 11.7 4.3 1.6 50 4.3 SW 30 48 16 26 1020.2 1020.3 0.0
18/08:30am 11.1 4.5 2.2 54 3.9 WSW 26 41 14 22 1019.7 1019.8 0.0
18/08:00am 10.7 5.5 2.3 56 3.6 WSW 19 26 10 14 1019.2 1019.3 0.0
18/07:30am 10.0 5.0 1.6 56 3.5 WSW 17 24 9 13 1018.8 1018.9 0.0
18/07:00am 9.7 4.1 1.1 55 3.6 WSW 20 32 11 17 1018.5 1018.6 0.0
18/06:30am 9.8 4.3 0.9 54 3.7 WSW 19 26 10 14 1018.0 1018.1 0.0
18/06:00am 10.1 5.1 1.5 55 3.6 WSW 17 26 9 14 1017.6 1017.7 0.0
18/05:30am 10.4 4.8 1.5 54 3.8 WSW 20 28 11 15 1017.4 1017.5 0.0
18/05:00am 9.7 5.7 0.3 52 3.8 WSW 11 15 6 8 1016.8 1016.9 0.0
18/04:30am 10.1 6.1 0.2 50 4.1 WSW 11 15 6 8 1016.4 1016.5 0.0
18/04:00am 11.2 6.8 0.3 47 4.5 WSW 13 17 7 9 1015.8 1015.9 0.0
18/03:30am 11.9 6.7 0.1 44 4.9 WSW 17 26 9 14 1015.6 1015.7 0.0
18/03:00am 12.2 7.0 0.0 43 5.1 W 17 26 9 14 1015.4 1015.4 0.0
18/02:30am 12.5 7.2 -0.4 41 5.3 W 17 22 9 12 1015.2 1015.2 0.0
18/02:00am 13.0 7.7 -0.6 39 5.6 W 17 24 9 13 1015.1 1015.1 0.0
18/01:30am 13.0 7.3 -0.6 39 5.6 W 19 28 10 15 1015.0 1015.0 0.0
18/01:00am 12.6 7.7 -0.3 41 5.3 W 15 24 8 13 1015.0 1015.0 0.0
18/12:30am 10.3 6.3 -2.0 42 4.8 WNW 9 13 5 7 1015.0 1015.0 0.0
18/12:00am 9.8 5.4 -2.5 42 4.7 NW 11 13 6 7 1014.9 1014.9 0.0
 
Date/Time
EST
Temp
°C
App
Temp
°C
Dew
Point
°C
Rel
Hum
%
Delta-T
°C
Wind Press
QNH
hPa
Press
MSL
hPa
Rain since
9am
mm
Dir  Spd
km/h
Gust
km/h
Spd
kts
Gust
kts
17/11:30pm 10.5 6.5 -2.5 40 5.0 NNW 9 9 5 5 1014.7 1014.7 0.0
17/11:00pm 10.1 6.4 -2.5 41 4.8 NNW 7 9 4 5 1014.5 1014.6 0.0
17/10:30pm 11.0 6.9 -2.8 38 5.3 NW 9 13 5 7 1014.4 1014.5 0.0
17/10:00pm 11.9 8.2 -2.7 36 5.7 NW 7 9 4 5 1014.3 1014.4 0.0
17/09:30pm 10.3 6.6 -3.0 39 5.1 NW 7 7 4 4 1014.2 1014.3 0.0
17/09:00pm 11.7 8.2 -2.9 36 5.7 WNW 6 7 3 4 1014.0 1014.1 0.0
17/08:30pm 13.4 9.3 -2.9 32 6.4 NW 9 11 5 6 1013.8 1013.9 0.0
17/08:00pm 13.4 9.3 -3.4 31 6.6 NW 9 9 5 5 1013.5 1013.6 0.0
17/07:30pm 14.7 10.6 -3.1 29 7.1 WNW 9 11 5 6 1013.1 1013.2 0.0
17/07:00pm 16.1 11.6 -2.9 27 7.7 WNW 11 15 6 8 1012.7 1012.8 0.0
17/06:30pm 17.3 12.1 -2.9 25 8.3 W 15 19 8 10 1012.3 1012.4 0.0
17/06:00pm 18.1 12.6 -2.2 25 8.5 WNW 17 24 9 13 1011.9 1012.0 0.0
17/05:30pm 19.3 11.7 -2.3 23 9.2 WNW 28 39 15 21 1011.6 1011.7 0.0
17/05:00pm 20.1 12.2 -1.7 23 9.4 WNW 30 39 16 21 1011.5 1011.5 0.0
17/04:30pm 20.7 12.9 -1.1 23 9.6 WNW 30 41 16 22 1011.3 1011.3 0.0
17/04:00pm 20.4 12.5 -1.4 23 9.5 W 30 43 16 23 1011.3 1011.3 0.0
17/03:30pm 20.8 13.3 -1.1 23 9.6 W 28 39 15 21 1011.1 1011.1 0.0
17/03:00pm 20.3 13.0 -0.3 25 9.2 WNW 28 35 15 19 1011.2 1011.2 0.0
17/02:30pm 20.7 13.8 0.0 25 9.3 W 26 39 14 21 1011.6 1011.7 0.0
17/02:00pm 20.3 14.1 -0.3 25 9.2 WNW 22 32 12 17 1011.8 1011.9 0.0
17/01:30pm 20.5 14.4 0.4 26 9.1 W 22 33 12 18 1012.2 1012.3 0.0
17/01:00pm 20.0 13.4 -0.1 26 9.0 W 24 37 13 20 1012.5 1012.6 0.0
17/12:30pm 19.3 12.7 -0.7 26 8.8 W 24 37 13 20 1012.9 1013.0 0.0
17/12:00pm 18.9 12.2 -1.0 26 8.6 WSW 24 39 13 21 1013.3 1013.4 0.0
17/11:30am 18.6 12.9 0.7 30 8.0 WSW 20 33 11 18 1013.7 1013.8 0.0
17/11:00am 17.8 11.5 1.3 33 7.4 WSW 24 35 13 19 1014.1 1014.2 0.0
17/10:30am 17.4 10.8 2.2 36 6.9 W 26 41 14 22 1014.5 1014.6 0.0
17/10:00am 17.1 11.5 1.5 35 7.0 WSW 20 32 11 17 1014.4 1014.5 0.0
17/09:30am 15.7 10.5 2.2 40 6.1 WSW 19 30 10 16 1014.4 1014.5 0.0
17/09:00am 14.6 9.7 2.2 43 5.5 WSW 17 20 9 11 1014.2 1014.3 0.0
17/08:51am 14.2 10.1 2.5 45 5.2 WSW 13 20 7 11 1014.2 1014.3 0.0
17/08:30am 11.7 8.8 1.6 50 4.3 W 6 9 3 5 1014.1 1014.2 0.0

Other Formats:

Comma delimited format used in spreadsheet applications
http://www.bom.gov.au/fwo/IDN60801/IDN60801.94710.axf

JavaScript Object Notation format (JSON) in row-major order
http://www.bom.gov.au/fwo/IDN60801/IDN60801.94710.json